Noriyoshimaru — JD3270 — position and weather

sailwx.info

Track history (hours):
 
Tides and Currents Weather Stations Pressure Air Temp Water Temp Dewpoint Dewpoint Depression Visibility Wind Speed Wind Dir Waves Ship Positions

Noriyoshimaru

Last reported at 2018-Feb-21 15:14 UTC. Time now 2018-Feb-21 20:44 UTC.
Position N 33°22' E 131°41'.

Length 64 m; draft 4 m.

Type: Tanker. MMSI: 431003089.

Date/timePositionNaut miles runAvg speedWind from/ knotsBaromVisibWave heightAir tempDewpointWater temp
2018-Feb-21 15:14N 33°22' E 131°41'0 0.0
2018-Feb-21 14:48N 33°22' E 131°41'0 0.0
2018-Feb-21 14:13N 33°22' E 131°41'0 0.0
2018-Feb-21 11:59N 33°22' E 131°41'5 8.7
2018-Feb-21 11:25N 33°26' E 131°45'510.8
2018-Feb-21 10:58N 33°30' E 131°47'511.1
2018-Feb-21 10:30N 33°35' E 131°47'711.6
2018-Feb-21 09:55N 33°42' E 131°46'611.8
2018-Feb-21 09:26N 33°48' E 131°46'512.1
2018-Feb-21 08:59N 33°53' E 131°46'612.1
2018-Feb-21 08:30N 33°59' E 131°45'4 1.6
2018-Feb-21 06:01N 34°02' E 131°48'0 3.2
2018-Feb-21 06:00N 34°02' E 131°48'5 8.7
2018-Feb-21 05:26N 33°58' E 131°44'512.1
2018-Feb-21 05:00N 33°58' E 131°38'612.1
2018-Feb-21 04:30N 33°56' E 131°31'612.0
2018-Feb-21 04:00N 33°55' E 131°24'611.7
2018-Feb-21 03:30N 33°52' E 131°17'4 8.6
2018-Feb-21 03:00N 33°55' E 131°13'2 3.8
2018-Feb-21 02:30N 33°56' E 131°15'0 0.0
2018-Feb-21 02:00N 33°56' E 131°15'0 0.0
2018-Feb-21 01:30N 33°56' E 131°15'0 0.0
2018-Feb-21 01:00N 33°56' E 131°15'0 0.0
2018-Feb-21 00:30N 33°56' E 131°15'0 0.0
2018-Feb-21 00:00N 33°56' E 131°15'0 0.0
2018-Feb-20 23:30N 33°56' E 131°15'1 2.2
2018-Feb-20 23:00N 33°56' E 131°14'1 1.9
2018-Feb-20 22:30N 33°55' E 131°13'0 0.0
2018-Feb-20 22:00N 33°55' E 131°13'0 0.0
2018-Feb-20 21:30N 33°55' E 131°13'0 0.0
2018-Feb-20 21:00N 33°55' E 131°13'0 0.1
2018-Feb-20 20:30N 33°55' E 131°13'0 0.0
2018-Feb-20 20:00N 33°55' E 131°13'0 0.0
2018-Feb-20 19:30N 33°55' E 131°13'0 0.0
2018-Feb-20 19:00N 33°55' E 131°13'0 0.0
2018-Feb-20 18:30N 33°55' E 131°13'0 0.0
2018-Feb-20 18:00N 33°55' E 131°13'0 0.0
2018-Feb-20 17:30N 33°55' E 131°13'0 0.0
2018-Feb-20 17:00N 33°55' E 131°13'0 0.0
2018-Feb-20 16:30N 33°55' E 131°13'0 0.0
2018-Feb-20 16:00N 33°55' E 131°13'0 0.0
2018-Feb-20 15:30N 33°55' E 131°13'0 0.0
2018-Feb-20 15:00N 33°55' E 131°13'0 0.1
2018-Feb-20 14:30N 33°55' E 131°13'0 0.0
2018-Feb-20 14:00N 33°55' E 131°13'0 0.0
2018-Feb-20 13:30N 33°55' E 131°13'0 0.0
2018-Feb-20 13:00N 33°55' E 131°13'0 0.0
2018-Feb-20 12:30N 33°55' E 131°13'0 0.0
2018-Feb-20 12:00N 33°55' E 131°13'0 0.0
2018-Feb-20 11:30N 33°55' E 131°13'0 0.0
2018-Feb-20 11:00N 33°55' E 131°13'0 0.0
2018-Feb-20 10:30N 33°55' E 131°13'0 0.0
2018-Feb-20 10:00N 33°55' E 131°13'0 0.1
2018-Feb-20 09:30N 33°55' E 131°13'0 0.1
2018-Feb-20 09:00N 33°55' E 131°13'0 0.0
2018-Feb-20 08:30N 33°55' E 131°13'0 0.0
2018-Feb-20 08:00N 33°55' E 131°13'0 0.0
2018-Feb-20 07:30N 33°55' E 131°13'3 5.3
2018-Feb-20 07:00N 33°53' E 131°14'5 9.5
2018-Feb-20 06:30N 33°53' E 131°20'5 9.9
2018-Feb-20 06:00N 33°54' E 131°26'5 9.8
2018-Feb-20 05:30N 33°55' E 131°31'510.0
2018-Feb-20 05:00N 33°57' E 131°37'510.0
2018-Feb-20 04:30N 33°58' E 131°43'510.0
2018-Feb-20 04:00N 34°01' E 131°48'1 0.6
2018-Feb-20 01:30N 34°02' E 131°49'3 5.7
2018-Feb-20 01:00N 34°00' E 131°46'510.7
2018-Feb-20 00:30N 33°58' E 131°41'611.1
2018-Feb-20 00:00N 33°57' E 131°34'511.0
2018-Feb-19 23:30N 33°56' E 131°28'510.8
2018-Feb-19 23:00N 33°54' E 131°21'510.3
2018-Feb-19 22:30N 33°52' E 131°16'510.6
2018-Feb-19 22:00N 33°54' E 131°10'611.3
2018-Feb-19 21:30N 33°57' E 131°04'611.2
2018-Feb-19 21:00N 33°57' E 130°57'4 8.8
2018-Feb-19 20:30N 33°56' E 130°52'611.2
2018-Feb-19 20:00N 33°58' E 130°45'611.4
2018-Feb-19 19:31N 33°58' E 130°39'611.2
2018-Feb-19 19:00N 33°58' E 130°32'611.4
2018-Feb-19 18:31N 33°56' E 130°25'611.3
2018-Feb-19 18:00N 33°54' E 130°19'611.4
2018-Feb-19 17:30N 33°51' E 130°13'17 0.5
2018-Feb-18 05:49N 33°42' E 129°56'310.2
2018-Feb-18 05:28N 33°44' E 129°60'510.1
2018-Feb-18 04:59N 33°46' E 130°05'510.2
2018-Feb-18 04:29N 33°49' E 130°10'510.1
2018-Feb-18 04:00N 33°51' E 130°15'510.3
2018-Feb-18 03:30N 33°54' E 130°20'510.0
2018-Feb-18 03:00N 33°57' E 130°26'510.5
2018-Feb-18 02:31N 33°58' E 130°32'510.8
2018-Feb-18 02:00N 33°58' E 130°38'611.0
2018-Feb-18 01:30N 33°58' E 130°45'510.9
2018-Feb-18 01:01N 33°57' E 130°52'4 8.3
2018-Feb-18 00:31N 33°57' E 130°57'510.4
2018-Feb-18 00:00N 33°58' E 131°03'3 6.1
2018-Feb-17 23:30N 33°55' E 131°04'0 0.0
2018-Feb-17 23:00N 33°55' E 131°04'0 0.0
2018-Feb-17 22:30N 33°55' E 131°04'0 0.0
2018-Feb-17 22:00N 33°55' E 131°04'1 2.8
2018-Feb-17 21:30N 33°55' E 131°06'510.6
2018-Feb-17 21:00N 33°53' E 131°12'611.0
2018-Feb-17 20:30N 33°51' E 131°18'510.9
2018-Feb-17 20:00N 33°50' E 131°25'510.7
2018-Feb-17 19:30N 33°49' E 131°31'510.4
2018-Feb-17 19:00N 33°48' E 131°37'510.4
2018-Feb-17 18:30N 33°47' E 131°43'510.1
2018-Feb-17 17:59N 33°46' E 131°49'1010.3
2018-Feb-17 17:00N 33°46' E 132°02'611.2
2018-Feb-17 16:30N 33°48' E 132°08'611.1
2018-Feb-17 15:57N 33°50' E 132°15'511.1
2018-Feb-17 15:30N 33°50' E 132°21'1510.6
2018-Feb-17 14:04N 33°55' E 132°38'110.1
2018-Feb-17 14:00N 33°55' E 132°39'7 8.8
2018-Feb-17 13:11N 34°01' E 132°45'1 0.0
2018-Feb-16 07:32N 33°59' E 132°45'210.5
2018-Feb-16 07:22N 33°58' E 132°43'5 9.8
2018-Feb-16 06:50N 33°55' E 132°39'510.3
2018-Feb-16 06:23N 33°51' E 132°35'510.1
2018-Feb-16 05:51N 33°47' E 132°30'610.4
2018-Feb-16 05:19N 33°44' E 132°26'410.3
2018-Feb-16 04:55N 33°41' E 132°22'510.5
2018-Feb-16 04:26N 33°37' E 132°18'1410.3
2018-Feb-16 03:02N 33°27' E 132°05'11 8.7
2018-Feb-16 01:50N 33°17' E 132°01'411.0
2018-Feb-16 01:29N 33°14' E 132°02'0 0.0
2018-Feb-15 15:09N 33°14' E 132°02'313.7
2018-Feb-15 14:54N 33°17' E 132°01'513.3
2018-Feb-15 14:30N 33°22' E 131°59'2512.1
2018-Feb-15 12:26N 33°41' E 132°20'21 9.5
2018-Feb-15 10:15N 33°59' E 132°31'8 9.7
2018-Feb-15 09:26N 34°04' E 132°25'511.1
2018-Feb-15 08:58N 34°08' E 132°20'511.4
2018-Feb-15 08:30N 34°11' E 132°15'1 2.1
2018-Feb-15 08:00N 34°12' E 132°14'0 0.0
2018-Feb-15 07:30N 34°12' E 132°14'0 0.0
2018-Feb-15 07:00N 34°12' E 132°14'0 0.0
2018-Feb-15 06:30N 34°12' E 132°14'0 0.0
2018-Feb-15 06:00N 34°12' E 132°14'0 0.0
2018-Feb-15 05:30N 34°12' E 132°14'0 0.0
2018-Feb-15 05:00N 34°12' E 132°14'0 0.0
2018-Feb-15 04:30N 34°12' E 132°14'0 0.0
2018-Feb-15 04:00N 34°12' E 132°14'0 0.0
2018-Feb-15 03:30N 34°12' E 132°14'0 0.0
2018-Feb-15 03:00N 34°12' E 132°14'0 0.0
2018-Feb-15 02:30N 34°12' E 132°14'0 0.0
2018-Feb-15 02:00N 34°12' E 132°14'0 0.0
2018-Feb-15 01:30N 34°12' E 132°14'0 0.0
2018-Feb-15 01:00N 34°12' E 132°14'0 0.0
2018-Feb-15 00:30N 34°12' E 132°14'4 8.0
2018-Feb-15 00:00N 34°10' E 132°18'611.1
2018-Feb-14 23:28N 34°06' E 132°24'611.3
2018-Feb-14 22:55N 34°03' E 132°30'4 8.7
2018-Feb-14 22:30N 34°04' E 132°35'5 9.8
2018-Feb-14 22:00N 34°05' E 132°40'80 9.4
2018-Feb-14 13:28N 34°24' E 134°14'810.4
2018-Feb-14 12:42N 34°26' E 134°24'211.0
2018-Feb-14 12:30N 34°27' E 134°26'610.9
2018-Feb-14 11:58N 34°29' E 134°33'510.9
2018-Feb-14 11:30N 34°31' E 134°39'611.1
2018-Feb-14 11:00N 34°33' E 134°45'611.5
2018-Feb-14 10:30N 34°35' E 134°51'612.1
2018-Feb-14 10:00N 34°37' E 134°58'611.4
2018-Feb-14 09:30N 34°36' E 135°05'510.7
2018-Feb-14 09:00N 34°35' E 135°11'5 9.8
2018-Feb-14 08:30N 34°34' E 135°17'510.3
2018-Feb-14 08:00N 34°33' E 135°23'2 3.9
2018-Feb-14 07:30N 34°32' E 135°25'0 0.0
2018-Feb-14 07:00N 34°32' E 135°25'0 0.0
2018-Feb-14 06:30N 34°32' E 135°25'0 0.0
2018-Feb-14 06:00N 34°32' E 135°25'0 0.0
2018-Feb-14 05:30N 34°32' E 135°25'0 0.0
2018-Feb-14 05:00N 34°32' E 135°25'0 0.0
2018-Feb-14 04:30N 34°32' E 135°25'0 0.0
2018-Feb-14 04:00N 34°32' E 135°25'0 0.0
2018-Feb-14 03:30N 34°32' E 135°25'0 0.0
2018-Feb-14 03:00N 34°32' E 135°25'0 0.0
2018-Feb-14 02:30N 34°32' E 135°25'0 0.0
2018-Feb-14 02:00N 34°32' E 135°25'0 0.0
2018-Feb-14 01:30N 34°32' E 135°25'0 0.0
2018-Feb-14 01:00N 34°32' E 135°25'0 0.0
2018-Feb-14 00:30N 34°32' E 135°25'0 0.0
2018-Feb-14 00:00N 34°32' E 135°25'3 6.0
2018-Feb-13 23:30N 34°33' E 135°22'1 2.9
2018-Feb-13 23:00N 34°33' E 135°20'0 0.0
2018-Feb-13 22:30N 34°33' E 135°20'0 0.0
2018-Feb-13 22:00N 34°33' E 135°20'0 0.1
2018-Feb-13 21:30N 34°33' E 135°20'0 0.0
2018-Feb-13 21:00N 34°33' E 135°20'0 0.0
2018-Feb-13 20:30N 34°33' E 135°20'0 0.0
2018-Feb-13 20:00N 34°33' E 135°20'0 0.0
2018-Feb-13 19:30N 34°33' E 135°20'0 0.0
2018-Feb-13 19:00N 34°33' E 135°20'0 0.0
2018-Feb-13 18:30N 34°33' E 135°20'0 0.0
2018-Feb-13 18:00N 34°33' E 135°20'0 0.0
2018-Feb-13 17:30N 34°33' E 135°20'0 0.0
2018-Feb-13 17:00N 34°33' E 135°20'0 0.0
2018-Feb-13 16:31N 34°33' E 135°20'0 0.0
2018-Feb-13 16:00N 34°33' E 135°20'0 0.0
2018-Feb-13 15:30N 34°33' E 135°20'0 0.0
2018-Feb-13 15:00N 34°33' E 135°20'0 0.0
2018-Feb-13 14:31N 34°33' E 135°20'0 0.0
2018-Feb-13 14:00N 34°33' E 135°20'0 0.0
2018-Feb-13 13:30N 34°33' E 135°20'0 0.0
2018-Feb-13 13:00N 34°33' E 135°20'0 0.0
2018-Feb-13 12:30N 34°33' E 135°20'0 0.0
2018-Feb-13 12:00N 34°33' E 135°20'0 0.0
2018-Feb-13 11:30N 34°33' E 135°20'0 0.0
2018-Feb-13 11:00N 34°33' E 135°20'3 5.6
2018-Feb-13 10:31N 34°33' E 135°17'611.5
2018-Feb-13 10:00N 34°34' E 135°10'611.6
2018-Feb-13 09:30N 34°36' E 135°03'5 9.7
2018-Feb-13 09:00N 34°36' E 134°57'611.5
2018-Feb-13 08:31N 34°34' E 134°51'611.6
2018-Feb-13 08:01N 34°32' E 134°44'611.7
2018-Feb-13 07:31N 34°29' E 134°38'611.5
2018-Feb-13 07:00N 34°27' E 134°31'611.7
2018-Feb-13 06:30N 34°25' E 134°24'4 0.3
2018-Feb-12 18:39N 34°27' E 134°28'2 9.9
2018-Feb-12 18:24N 34°28' E 134°31'410.0
2018-Feb-12 18:00N 34°29' E 134°36'5 9.9
2018-Feb-12 17:30N 34°31' E 134°41'5 9.6
2018-Feb-12 17:00N 34°33' E 134°47'5 9.0
2018-Feb-12 16:30N 34°35' E 134°52'4 8.3
2018-Feb-12 16:00N 34°37' E 134°56'4 8.1
2018-Feb-12 15:30N 34°37' E 135°01'4 7.4
2018-Feb-12 15:00N 34°35' E 135°05'4 8.2
2018-Feb-12 14:30N 34°31' E 135°06'5 9.6
2018-Feb-12 14:00N 34°27' E 135°04'5 9.8
2018-Feb-12 13:30N 34°22' E 135°02'5 9.7
2018-Feb-12 13:00N 34°18' E 134°60'4 8.7
2018-Feb-12 12:30N 34°14' E 135°01'5 9.6
2018-Feb-12 12:00N 34°10' E 135°04'4 7.6
2018-Feb-12 11:30N 34°07' E 135°08'0 0.3
2018-Feb-12 11:00N 34°07' E 135°07'0 0.0
2018-Feb-12 10:30N 34°07' E 135°07'0 0.0
2018-Feb-12 10:00N 34°07' E 135°07'0 0.0
2018-Feb-12 09:30N 34°07' E 135°07'0 0.0
2018-Feb-12 09:00N 34°07' E 135°07'0 0.0
2018-Feb-12 08:30N 34°07' E 135°07'0 0.0
2018-Feb-12 08:00N 34°07' E 135°07'0 0.0
2018-Feb-12 07:30N 34°07' E 135°07'0 0.0
2018-Feb-12 06:59N 34°07' E 135°07'0 0.0
2018-Feb-12 06:30N 34°07' E 135°07'0 0.0
2018-Feb-12 06:00N 34°07' E 135°07'0 0.0
2018-Feb-12 05:30N 34°07' E 135°07'0 0.0
2018-Feb-12 05:00N 34°07' E 135°07'0 0.8
2018-Feb-12 04:30N 34°07' E 135°08'0 0.0
2018-Feb-12 04:00N 34°07' E 135°08'0 0.0
2018-Feb-12 03:30N 34°07' E 135°08'0 0.0
2018-Feb-12 03:01N 34°07' E 135°08'3 6.1
2018-Feb-12 02:30N 34°10' E 135°06'3 6.6
2018-Feb-12 02:01N 34°13' E 135°09'0 0.0
2018-Feb-12 01:30N 34°13' E 135°09'0 0.0
2018-Feb-12 01:00N 34°13' E 135°09'0 0.0
2018-Feb-12 00:30N 34°13' E 135°09'0 0.0
2018-Feb-12 00:00N 34°13' E 135°09'0 0.0
2018-Feb-11 23:30N 34°13' E 135°09'0 0.0
2018-Feb-11 23:00N 34°13' E 135°09'0 0.0
2018-Feb-11 22:30N 34°13' E 135°09'0 0.0
2018-Feb-11 22:00N 34°13' E 135°09'0 0.0
2018-Feb-11 21:30N 34°13' E 135°09'0 0.0
2018-Feb-11 21:00N 34°13' E 135°09'0 0.0
2018-Feb-11 20:30N 34°13' E 135°09'0 0.0
2018-Feb-11 20:00N 34°13' E 135°09'0 0.0
2018-Feb-11 19:30N 34°13' E 135°09'0 0.0
2018-Feb-11 19:00N 34°13' E 135°09'0 0.0
2018-Feb-11 18:30N 34°13' E 135°09'0 0.0
2018-Feb-11 18:00N 34°13' E 135°09'0 0.0
2018-Feb-11 17:30N 34°13' E 135°09'0 0.0
2018-Feb-11 17:00N 34°13' E 135°09'0 0.0
2018-Feb-11 16:30N 34°13' E 135°09'0 0.0
2018-Feb-11 16:00N 34°13' E 135°09'0 0.0
2018-Feb-11 15:30N 34°13' E 135°09'  
Track history (hours):
 
Tides and Currents Weather Stations Pressure Air Temp Water Temp Dewpoint Dewpoint Depression Visibility Wind Speed Wind Dir Waves Ship Positions

Noriyoshimaru

Last reported at 2018-Feb-21 15:14 UTC. Time now 2018-Feb-21 20:44 UTC.
Position N 33°22' E 131°41'.

Length 64 m; draft 4 m.

Type: Tanker. MMSI: 431003089.

Date/timePositionNaut miles runAvg speedWind from/ knotsBaromVisibWave heightAir tempDewpointWater temp
2018-Feb-21 15:14N 33°22' E 131°41'0 0.0
2018-Feb-21 14:48N 33°22' E 131°41'0 0.0
2018-Feb-21 14:13N 33°22' E 131°41'0 0.0
2018-Feb-21 11:59N 33°22' E 131°41'5 8.7
2018-Feb-21 11:25N 33°26' E 131°45'510.8
2018-Feb-21 10:58N 33°30' E 131°47'511.1
2018-Feb-21 10:30N 33°35' E 131°47'711.6
2018-Feb-21 09:55N 33°42' E 131°46'611.8
2018-Feb-21 09:26N 33°48' E 131°46'512.1
2018-Feb-21 08:59N 33°53' E 131°46'612.1
2018-Feb-21 08:30N 33°59' E 131°45'4 1.6
2018-Feb-21 06:01N 34°02' E 131°48'0 3.2
2018-Feb-21 06:00N 34°02' E 131°48'5 8.7
2018-Feb-21 05:26N 33°58' E 131°44'512.1
2018-Feb-21 05:00N 33°58' E 131°38'612.1
2018-Feb-21 04:30N 33°56' E 131°31'612.0
2018-Feb-21 04:00N 33°55' E 131°24'611.7
2018-Feb-21 03:30N 33°52' E 131°17'4 8.6
2018-Feb-21 03:00N 33°55' E 131°13'2 3.8
2018-Feb-21 02:30N 33°56' E 131°15'0 0.0
2018-Feb-21 02:00N 33°56' E 131°15'0 0.0
2018-Feb-21 01:30N 33°56' E 131°15'0 0.0
2018-Feb-21 01:00N 33°56' E 131°15'0 0.0
2018-Feb-21 00:30N 33°56' E 131°15'0 0.0
2018-Feb-21 00:00N 33°56' E 131°15'0 0.0
2018-Feb-20 23:30N 33°56' E 131°15'1 2.2
2018-Feb-20 23:00N 33°56' E 131°14'1 1.9
2018-Feb-20 22:30N 33°55' E 131°13'0 0.0
2018-Feb-20 22:00N 33°55' E 131°13'0 0.0
2018-Feb-20 21:30N 33°55' E 131°13'0 0.0
2018-Feb-20 21:00N 33°55' E 131°13'0 0.1
2018-Feb-20 20:30N 33°55' E 131°13'0 0.0
2018-Feb-20 20:00N 33°55' E 131°13'0 0.0
2018-Feb-20 19:30N 33°55' E 131°13'0 0.0
2018-Feb-20 19:00N 33°55' E 131°13'0 0.0
2018-Feb-20 18:30N 33°55' E 131°13'0 0.0
2018-Feb-20 18:00N 33°55' E 131°13'0 0.0
2018-Feb-20 17:30N 33°55' E 131°13'0 0.0
2018-Feb-20 17:00N 33°55' E 131°13'0 0.0
2018-Feb-20 16:30N 33°55' E 131°13'0 0.0
2018-Feb-20 16:00N 33°55' E 131°13'0 0.0
2018-Feb-20 15:30N 33°55' E 131°13'0 0.0
2018-Feb-20 15:00N 33°55' E 131°13'0 0.1
2018-Feb-20 14:30N 33°55' E 131°13'0 0.0
2018-Feb-20 14:00N 33°55' E 131°13'0 0.0
2018-Feb-20 13:30N 33°55' E 131°13'0 0.0
2018-Feb-20 13:00N 33°55' E 131°13'0 0.0
2018-Feb-20 12:30N 33°55' E 131°13'0 0.0
2018-Feb-20 12:00N 33°55' E 131°13'0 0.0
2018-Feb-20 11:30N 33°55' E 131°13'0 0.0
2018-Feb-20 11:00N 33°55' E 131°13'0 0.0
2018-Feb-20 10:30N 33°55' E 131°13'0 0.0
2018-Feb-20 10:00N 33°55' E 131°13'0 0.1
2018-Feb-20 09:30N 33°55' E 131°13'0 0.1
2018-Feb-20 09:00N 33°55' E 131°13'0 0.0
2018-Feb-20 08:30N 33°55' E 131°13'0 0.0
2018-Feb-20 08:00N 33°55' E 131°13'0 0.0
2018-Feb-20 07:30N 33°55' E 131°13'3 5.3
2018-Feb-20 07:00N 33°53' E 131°14'5 9.5
2018-Feb-20 06:30N 33°53' E 131°20'5 9.9
2018-Feb-20 06:00N 33°54' E 131°26'5 9.8
2018-Feb-20 05:30N 33°55' E 131°31'510.0
2018-Feb-20 05:00N 33°57' E 131°37'510.0
2018-Feb-20 04:30N 33°58' E 131°43'510.0
2018-Feb-20 04:00N 34°01' E 131°48'1 0.6
2018-Feb-20 01:30N 34°02' E 131°49'3 5.7
2018-Feb-20 01:00N 34°00' E 131°46'510.7
2018-Feb-20 00:30N 33°58' E 131°41'611.1
2018-Feb-20 00:00N 33°57' E 131°34'511.0
2018-Feb-19 23:30N 33°56' E 131°28'510.8
2018-Feb-19 23:00N 33°54' E 131°21'510.3
2018-Feb-19 22:30N 33°52' E 131°16'510.6
2018-Feb-19 22:00N 33°54' E 131°10'611.3
2018-Feb-19 21:30N 33°57' E 131°04'611.2
2018-Feb-19 21:00N 33°57' E 130°57'4 8.8
2018-Feb-19 20:30N 33°56' E 130°52'611.2
2018-Feb-19 20:00N 33°58' E 130°45'611.4
2018-Feb-19 19:31N 33°58' E 130°39'611.2
2018-Feb-19 19:00N 33°58' E 130°32'611.4
2018-Feb-19 18:31N 33°56' E 130°25'611.3
2018-Feb-19 18:00N 33°54' E 130°19'611.4
2018-Feb-19 17:30N 33°51' E 130°13'17 0.5
2018-Feb-18 05:49N 33°42' E 129°56'310.2
2018-Feb-18 05:28N 33°44' E 129°60'510.1
2018-Feb-18 04:59N 33°46' E 130°05'510.2
2018-Feb-18 04:29N 33°49' E 130°10'510.1
2018-Feb-18 04:00N 33°51' E 130°15'510.3
2018-Feb-18 03:30N 33°54' E 130°20'510.0
2018-Feb-18 03:00N 33°57' E 130°26'510.5
2018-Feb-18 02:31N 33°58' E 130°32'510.8
2018-Feb-18 02:00N 33°58' E 130°38'611.0
2018-Feb-18 01:30N 33°58' E 130°45'510.9
2018-Feb-18 01:01N 33°57' E 130°52'4 8.3
2018-Feb-18 00:31N 33°57' E 130°57'510.4
2018-Feb-18 00:00N 33°58' E 131°03'3 6.1
2018-Feb-17 23:30N 33°55' E 131°04'0 0.0
2018-Feb-17 23:00N 33°55' E 131°04'0 0.0
2018-Feb-17 22:30N 33°55' E 131°04'0 0.0
2018-Feb-17 22:00N 33°55' E 131°04'1 2.8
2018-Feb-17 21:30N 33°55' E 131°06'510.6
2018-Feb-17 21:00N 33°53' E 131°12'611.0
2018-Feb-17 20:30N 33°51' E 131°18'510.9
2018-Feb-17 20:00N 33°50' E 131°25'510.7
2018-Feb-17 19:30N 33°49' E 131°31'510.4
2018-Feb-17 19:00N 33°48' E 131°37'510.4
2018-Feb-17 18:30N 33°47' E 131°43'510.1
2018-Feb-17 17:59N 33°46' E 131°49'1010.3
2018-Feb-17 17:00N 33°46' E 132°02'611.2
2018-Feb-17 16:30N 33°48' E 132°08'611.1
2018-Feb-17 15:57N 33°50' E 132°15'511.1
2018-Feb-17 15:30N 33°50' E 132°21'1510.6
2018-Feb-17 14:04N 33°55' E 132°38'110.1
2018-Feb-17 14:00N 33°55' E 132°39'7 8.8
2018-Feb-17 13:11N 34°01' E 132°45'1 0.0
2018-Feb-16 07:32N 33°59' E 132°45'210.5
2018-Feb-16 07:22N 33°58' E 132°43'5 9.8
2018-Feb-16 06:50N 33°55' E 132°39'510.3
2018-Feb-16 06:23N 33°51' E 132°35'510.1
2018-Feb-16 05:51N 33°47' E 132°30'610.4
2018-Feb-16 05:19N 33°44' E 132°26'410.3
2018-Feb-16 04:55N 33°41' E 132°22'510.5
2018-Feb-16 04:26N 33°37' E 132°18'1410.3
2018-Feb-16 03:02N 33°27' E 132°05'11 8.7
2018-Feb-16 01:50N 33°17' E 132°01'411.0
2018-Feb-16 01:29N 33°14' E 132°02'0 0.0
2018-Feb-15 15:09N 33°14' E 132°02'313.7
2018-Feb-15 14:54N 33°17' E 132°01'513.3
2018-Feb-15 14:30N 33°22' E 131°59'2512.1
2018-Feb-15 12:26N 33°41' E 132°20'21 9.5
2018-Feb-15 10:15N 33°59' E 132°31'8 9.7
2018-Feb-15 09:26N 34°04' E 132°25'511.1
2018-Feb-15 08:58N 34°08' E 132°20'511.4
2018-Feb-15 08:30N 34°11' E 132°15'1 2.1
2018-Feb-15 08:00N 34°12' E 132°14'0 0.0
2018-Feb-15 07:30N 34°12' E 132°14'0 0.0
2018-Feb-15 07:00N 34°12' E 132°14'0 0.0
2018-Feb-15 06:30N 34°12' E 132°14'0 0.0
2018-Feb-15 06:00N 34°12' E 132°14'0 0.0
2018-Feb-15 05:30N 34°12' E 132°14'0 0.0
2018-Feb-15 05:00N 34°12' E 132°14'0 0.0
2018-Feb-15 04:30N 34°12' E 132°14'0 0.0
2018-Feb-15 04:00N 34°12' E 132°14'0 0.0
2018-Feb-15 03:30N 34°12' E 132°14'0 0.0
2018-Feb-15 03:00N 34°12' E 132°14'0 0.0
2018-Feb-15 02:30N 34°12' E 132°14'0 0.0
2018-Feb-15 02:00N 34°12' E 132°14'0 0.0
2018-Feb-15 01:30N 34°12' E 132°14'0 0.0
2018-Feb-15 01:00N 34°12' E 132°14'0 0.0
2018-Feb-15 00:30N 34°12' E 132°14'4 8.0
2018-Feb-15 00:00N 34°10' E 132°18'611.1
2018-Feb-14 23:28N 34°06' E 132°24'611.3
2018-Feb-14 22:55N 34°03' E 132°30'4 8.7
2018-Feb-14 22:30N 34°04' E 132°35'5 9.8
2018-Feb-14 22:00N 34°05' E 132°40'80 9.4
2018-Feb-14 13:28N 34°24' E 134°14'810.4
2018-Feb-14 12:42N 34°26' E 134°24'211.0
2018-Feb-14 12:30N 34°27' E 134°26'610.9
2018-Feb-14 11:58N 34°29' E 134°33'510.9
2018-Feb-14 11:30N 34°31' E 134°39'611.1
2018-Feb-14 11:00N 34°33' E 134°45'611.5
2018-Feb-14 10:30N 34°35' E 134°51'612.1
2018-Feb-14 10:00N 34°37' E 134°58'611.4
2018-Feb-14 09:30N 34°36' E 135°05'510.7
2018-Feb-14 09:00N 34°35' E 135°11'5 9.8
2018-Feb-14 08:30N 34°34' E 135°17'510.3
2018-Feb-14 08:00N 34°33' E 135°23'2 3.9
2018-Feb-14 07:30N 34°32' E 135°25'0 0.0
2018-Feb-14 07:00N 34°32' E 135°25'0 0.0
2018-Feb-14 06:30N 34°32' E 135°25'0 0.0
2018-Feb-14 06:00N 34°32' E 135°25'0 0.0
2018-Feb-14 05:30N 34°32' E 135°25'0 0.0
2018-Feb-14 05:00N 34°32' E 135°25'0 0.0
2018-Feb-14 04:30N 34°32' E 135°25'0 0.0
2018-Feb-14 04:00N 34°32' E 135°25'0 0.0
2018-Feb-14 03:30N 34°32' E 135°25'0 0.0
2018-Feb-14 03:00N 34°32' E 135°25'0 0.0
2018-Feb-14 02:30N 34°32' E 135°25'0 0.0
2018-Feb-14 02:00N 34°32' E 135°25'0 0.0
2018-Feb-14 01:30N 34°32' E 135°25'0 0.0
2018-Feb-14 01:00N 34°32' E 135°25'0 0.0
2018-Feb-14 00:30N 34°32' E 135°25'0 0.0
2018-Feb-14 00:00N 34°32' E 135°25'3 6.0
2018-Feb-13 23:30N 34°33' E 135°22'1 2.9
2018-Feb-13 23:00N 34°33' E 135°20'0 0.0
2018-Feb-13 22:30N 34°33' E 135°20'0 0.0
2018-Feb-13 22:00N 34°33' E 135°20'0 0.1
2018-Feb-13 21:30N 34°33' E 135°20'0 0.0
2018-Feb-13 21:00N 34°33' E 135°20'0 0.0
2018-Feb-13 20:30N 34°33' E 135°20'0 0.0
2018-Feb-13 20:00N 34°33' E 135°20'0 0.0
2018-Feb-13 19:30N 34°33' E 135°20'0 0.0
2018-Feb-13 19:00N 34°33' E 135°20'0 0.0
2018-Feb-13 18:30N 34°33' E 135°20'0 0.0
2018-Feb-13 18:00N 34°33' E 135°20'0 0.0
2018-Feb-13 17:30N 34°33' E 135°20'0 0.0
2018-Feb-13 17:00N 34°33' E 135°20'0 0.0
2018-Feb-13 16:31N 34°33' E 135°20'0 0.0
2018-Feb-13 16:00N 34°33' E 135°20'0 0.0
2018-Feb-13 15:30N 34°33' E 135°20'0 0.0
2018-Feb-13 15:00N 34°33' E 135°20'0 0.0
2018-Feb-13 14:31N 34°33' E 135°20'0 0.0
2018-Feb-13 14:00N 34°33' E 135°20'0 0.0
2018-Feb-13 13:30N 34°33' E 135°20'0 0.0
2018-Feb-13 13:00N 34°33' E 135°20'0 0.0
2018-Feb-13 12:30N 34°33' E 135°20'0 0.0
2018-Feb-13 12:00N 34°33' E 135°20'0 0.0
2018-Feb-13 11:30N 34°33' E 135°20'0 0.0
2018-Feb-13 11:00N 34°33' E 135°20'3 5.6
2018-Feb-13 10:31N 34°33' E 135°17'611.5
2018-Feb-13 10:00N 34°34' E 135°10'611.6
2018-Feb-13 09:30N 34°36' E 135°03'5 9.7
2018-Feb-13 09:00N 34°36' E 134°57'611.5
2018-Feb-13 08:31N 34°34' E 134°51'611.6
2018-Feb-13 08:01N 34°32' E 134°44'611.7
2018-Feb-13 07:31N 34°29' E 134°38'611.5
2018-Feb-13 07:00N 34°27' E 134°31'611.7
2018-Feb-13 06:30N 34°25' E 134°24'4 0.3
2018-Feb-12 18:39N 34°27' E 134°28'2 9.9
2018-Feb-12 18:24N 34°28' E 134°31'410.0
2018-Feb-12 18:00N 34°29' E 134°36'5 9.9
2018-Feb-12 17:30N 34°31' E 134°41'5 9.6
2018-Feb-12 17:00N 34°33' E 134°47'5 9.0
2018-Feb-12 16:30N 34°35' E 134°52'4 8.3
2018-Feb-12 16:00N 34°37' E 134°56'4 8.1
2018-Feb-12 15:30N 34°37' E 135°01'4 7.4
2018-Feb-12 15:00N 34°35' E 135°05'4 8.2
2018-Feb-12 14:30N 34°31' E 135°06'5 9.6
2018-Feb-12 14:00N 34°27' E 135°04'5 9.8
2018-Feb-12 13:30N 34°22' E 135°02'5 9.7
2018-Feb-12 13:00N 34°18' E 134°60'4 8.7
2018-Feb-12 12:30N 34°14' E 135°01'5 9.6
2018-Feb-12 12:00N 34°10' E 135°04'4 7.6
2018-Feb-12 11:30N 34°07' E 135°08'0 0.3
2018-Feb-12 11:00N 34°07' E 135°07'0 0.0
2018-Feb-12 10:30N 34°07' E 135°07'0 0.0
2018-Feb-12 10:00N 34°07' E 135°07'0 0.0
2018-Feb-12 09:30N 34°07' E 135°07'0 0.0
2018-Feb-12 09:00N 34°07' E 135°07'0 0.0
2018-Feb-12 08:30N 34°07' E 135°07'0 0.0
2018-Feb-12 08:00N 34°07' E 135°07'0 0.0
2018-Feb-12 07:30N 34°07' E 135°07'0 0.0
2018-Feb-12 06:59N 34°07' E 135°07'0 0.0
2018-Feb-12 06:30N 34°07' E 135°07'0 0.0
2018-Feb-12 06:00N 34°07' E 135°07'0 0.0
2018-Feb-12 05:30N 34°07' E 135°07'0 0.0
2018-Feb-12 05:00N 34°07' E 135°07'0 0.8
2018-Feb-12 04:30N 34°07' E 135°08'0 0.0
2018-Feb-12 04:00N 34°07' E 135°08'0 0.0
2018-Feb-12 03:30N 34°07' E 135°08'0 0.0
2018-Feb-12 03:01N 34°07' E 135°08'3 6.1
2018-Feb-12 02:30N 34°10' E 135°06'3 6.6
2018-Feb-12 02:01N 34°13' E 135°09'0 0.0
2018-Feb-12 01:30N 34°13' E 135°09'0 0.0
2018-Feb-12 01:00N 34°13' E 135°09'0 0.0
2018-Feb-12 00:30N 34°13' E 135°09'0 0.0
2018-Feb-12 00:00N 34°13' E 135°09'0 0.0
2018-Feb-11 23:30N 34°13' E 135°09'0 0.0
2018-Feb-11 23:00N 34°13' E 135°09'0 0.0
2018-Feb-11 22:30N 34°13' E 135°09'0 0.0
2018-Feb-11 22:00N 34°13' E 135°09'0 0.0
2018-Feb-11 21:30N 34°13' E 135°09'0 0.0
2018-Feb-11 21:00N 34°13' E 135°09'0 0.0
2018-Feb-11 20:30N 34°13' E 135°09'0 0.0
2018-Feb-11 20:00N 34°13' E 135°09'0 0.0
2018-Feb-11 19:30N 34°13' E 135°09'0 0.0
2018-Feb-11 19:00N 34°13' E 135°09'0 0.0
2018-Feb-11 18:30N 34°13' E 135°09'0 0.0
2018-Feb-11 18:00N 34°13' E 135°09'0 0.0
2018-Feb-11 17:30N 34°13' E 135°09'0 0.0
2018-Feb-11 17:00N 34°13' E 135°09'0 0.0
2018-Feb-11 16:30N 34°13' E 135°09'0 0.0
2018-Feb-11 16:00N 34°13' E 135°09'0 0.0
2018-Feb-11 15:30N 34°13' E 135°09'  

Dump ship's entire track history